createdAt,value
2022-11-08T00:02:29.012Z,229.55
2022-11-08T00:05:34.785Z,257.40
2022-11-08T00:08:40.591Z,239.98
2022-11-08T00:11:46.130Z,238.23
2022-11-08T00:14:35.424Z,266.87
2022-11-08T00:17:24.696Z,229.98
2022-11-08T00:20:12.649Z,246.10
2022-11-08T00:23:00.700Z,238.77
2022-11-08T00:25:54.424Z,243.48
2022-11-08T00:28:42.382Z,244.57
2022-11-08T00:31:31.620Z,239.00
2022-11-08T00:34:19.560Z,245.00
2022-11-08T00:37:07.725Z,231.80
2022-11-08T00:39:55.633Z,236.77
2022-11-08T00:42:43.534Z,231.30
2022-11-08T00:45:31.525Z,230.87
2022-11-08T00:48:20.953Z,232.45
2022-11-08T00:51:11.735Z,224.95
2022-11-08T00:53:59.973Z,215.20
2022-11-08T00:56:48.796Z,213.00
2022-11-08T00:59:36.944Z,220.00
2022-11-08T01:02:24.935Z,214.25
2022-11-08T01:05:14.304Z,225.00
2022-11-08T01:08:02.243Z,234.17
2022-11-08T01:10:51.425Z,229.23
2022-11-08T01:13:39.416Z,208.63
2022-11-08T01:16:29.717Z,226.67
2022-11-08T01:19:17.627Z,221.30
2022-11-08T01:22:06.884Z,214.50
2022-11-08T01:24:54.794Z,207.90
2022-11-08T01:27:43.480Z,219.20
2022-11-08T01:30:31.432Z,222.57
2022-11-08T01:33:19.484Z,212.18
2022-11-08T01:36:08.335Z,229.80
2022-11-08T01:38:58.060Z,204.88
2022-11-08T01:41:45.972Z,215.90
2022-11-08T01:44:33.880Z,220.23
2022-11-08T01:47:21.780Z,213.20
2022-11-08T01:50:15.451Z,227.32
2022-11-08T01:53:03.388Z,218.60
2022-11-08T01:55:53.694Z,247.57
2022-11-08T01:58:43.845Z,210.70
2022-11-08T02:01:32.467Z,225.63
2022-11-08T02:04:20.928Z,224.55
2022-11-08T02:07:10.277Z,245.52
2022-11-08T02:09:58.482Z,222.57
2022-11-08T02:12:47.808Z,234.20
2022-11-08T02:15:36.244Z,245.30
2022-11-08T02:18:26.107Z,249.10
2022-11-08T02:21:18.360Z,248.80
2022-11-08T02:24:11.593Z,242.37
2022-11-08T02:27:00.181Z,230.80
2022-11-08T02:29:48.075Z,237.50
2022-11-08T02:32:40.058Z,235.55
2022-11-08T02:35:28.725Z,253.05
2022-11-08T02:38:17.463Z,262.75
2022-11-08T02:41:07.689Z,253.88
2022-11-08T02:43:55.607Z,262.58
2022-11-08T02:46:43.504Z,265.40
2022-11-08T02:49:31.415Z,278.52
2022-11-08T02:52:19.377Z,274.92
2022-11-08T02:55:08.388Z,287.60
2022-11-08T02:57:58.165Z,289.77
2022-11-08T03:00:46.107Z,286.38
2022-11-08T03:03:34.031Z,284.95
2022-11-08T03:06:21.950Z,286.98
2022-11-08T03:09:10.895Z,273.65
2022-11-08T03:11:58.845Z,287.50
2022-11-08T03:14:48.076Z,282.13
2022-11-08T03:17:36.057Z,286.27
2022-11-08T03:20:28.254Z,282.50
2022-11-08T03:23:20.574Z,278.67
2022-11-08T03:26:08.813Z,296.13
2022-11-08T03:28:56.692Z,279.40
2022-11-08T03:31:46.017Z,280.15
2022-11-08T03:34:34.054Z,282.83
2022-11-08T03:37:22.999Z,269.85
2022-11-08T03:40:12.437Z,281.33
2022-11-08T03:43:00.418Z,286.60
2022-11-08T03:45:48.329Z,279.90
2022-11-08T03:48:37.596Z,285.85
2022-11-08T03:51:25.516Z,291.98
2022-11-08T03:54:13.462Z,306.20
2022-11-08T03:57:01.412Z,291.60
2022-11-08T03:59:49.353Z,286.63
2022-11-08T04:02:37.356Z,268.35
2022-11-08T04:05:26.763Z,270.60
2022-11-08T04:08:14.917Z,290.90
2022-11-08T04:11:23.341Z,271.50
2022-11-08T04:14:37.122Z,258.60
2022-11-08T04:17:45.102Z,284.70
2022-11-08T04:20:51.949Z,261.58
2022-11-08T04:23:39.865Z,267.20
2022-11-08T04:26:27.801Z,278.10
2022-11-08T04:29:15.856Z,268.40
2022-11-08T04:32:03.873Z,268.00
2022-11-08T04:34:51.807Z,292.85
2022-11-08T04:37:41.100Z,280.35
2022-11-08T04:40:31.389Z,275.65
2022-11-08T04:43:19.289Z,301.73
2022-11-08T04:46:09.000Z,324.88
2022-11-08T04:48:58.371Z,321.50
2022-11-08T04:51:46.274Z,318.30
2022-11-08T04:54:35.497Z,312.95
2022-11-08T04:57:23.394Z,300.35
2022-11-08T05:00:12.541Z,322.25
2022-11-08T05:03:03.049Z,307.15
2022-11-08T05:05:51.036Z,319.05
2022-11-08T05:08:39.561Z,315.65
2022-11-08T05:11:30.145Z,327.50
2022-11-08T05:14:18.204Z,322.48
2022-11-08T05:17:06.156Z,325.73
2022-11-08T05:20:11.461Z,325.45
2022-11-08T05:23:19.679Z,306.48
2022-11-08T05:26:08.032Z,317.08
2022-11-08T05:28:57.354Z,299.75
2022-11-08T05:31:45.311Z,283.65
2022-11-08T05:34:33.229Z,292.55
2022-11-08T05:37:21.167Z,287.95
2022-11-08T05:40:11.119Z,281.48
2022-11-08T05:42:59.005Z,284.52
2022-11-08T05:45:48.285Z,262.75
2022-11-08T05:48:36.920Z,258.53
2022-11-08T05:51:24.964Z,262.30
2022-11-08T05:54:13.104Z,245.80
2022-11-08T05:57:01.013Z,249.40
2022-11-08T05:59:49.012Z,223.30
2022-11-08T06:02:38.362Z,220.00
2022-11-08T06:05:26.285Z,237.07
2022-11-08T06:08:14.724Z,249.03
2022-11-08T06:11:03.611Z,236.57
2022-11-08T06:13:51.563Z,229.93
2022-11-08T06:16:39.462Z,234.07
2022-11-08T06:19:28.775Z,233.03
2022-11-08T06:22:16.799Z,251.97
2022-11-08T06:25:05.934Z,235.02
2022-11-08T06:27:53.862Z,230.93
2022-11-08T06:30:42.124Z,252.07
2022-11-08T06:33:30.751Z,239.73
2022-11-08T06:36:21.387Z,235.03
2022-11-08T06:39:09.363Z,246.07
2022-11-08T06:41:57.240Z,238.90
2022-11-08T06:44:45.125Z,244.33
2022-11-08T06:47:33.044Z,246.17
2022-11-08T06:50:20.927Z,245.60
2022-11-08T06:53:12.429Z,252.03
2022-11-08T06:56:00.355Z,239.50
2022-11-08T06:58:48.214Z,245.93
2022-11-08T07:01:36.393Z,246.57
2022-11-08T07:04:04.377Z,228.80
2022-11-08T07:06:32.066Z,245.80
2022-11-08T07:09:01.085Z,253.77
2022-11-08T07:11:28.715Z,248.97
2022-11-08T07:13:56.319Z,245.80
2022-11-08T07:16:23.965Z,264.43
2022-11-08T07:18:51.802Z,254.40
2022-11-08T07:21:19.602Z,249.37
2022-11-08T07:23:48.462Z,241.20
2022-11-08T07:26:17.422Z,242.67
2022-11-08T07:28:45.097Z,258.60
2022-11-08T07:31:12.987Z,244.17
2022-11-08T07:33:40.649Z,258.40
2022-11-08T07:36:08.869Z,267.23
2022-11-08T07:38:36.585Z,266.35
2022-11-08T07:41:04.518Z,262.10
2022-11-08T07:43:33.558Z,246.35
2022-11-08T07:46:10.270Z,258.85
2022-11-08T07:48:37.888Z,274.42
2022-11-08T07:51:05.655Z,288.17
2022-11-08T07:53:33.336Z,288.10
2022-11-08T07:56:00.960Z,296.55
2022-11-08T07:58:28.690Z,321.65
2022-11-08T08:01:01.845Z,344.67
2022-11-08T08:03:29.691Z,345.98
2022-11-08T08:06:00.973Z,341.02
2022-11-08T08:08:29.997Z,348.52
2022-11-08T08:11:00.010Z,352.90
2022-11-08T08:13:27.858Z,361.52
2022-11-08T08:16:00.851Z,364.33
2022-11-08T08:18:29.174Z,378.52
2022-11-08T08:20:57.304Z,369.83
2022-11-08T08:23:25.015Z,369.67
2022-11-08T08:25:52.796Z,394.67
2022-11-08T08:28:20.499Z,354.17
2022-11-08T08:30:48.093Z,376.48
2022-11-08T08:33:34.709Z,367.67
2022-11-08T08:36:02.634Z,389.48
2022-11-08T08:38:31.078Z,384.45
2022-11-08T08:40:58.946Z,371.25
2022-11-08T08:43:27.453Z,381.42
2022-11-08T08:45:55.242Z,374.05
2022-11-08T08:48:24.229Z,377.42
2022-11-08T08:50:51.889Z,386.58
2022-11-08T08:53:19.921Z,376.58
2022-11-08T08:55:48.192Z,388.92
2022-11-08T08:58:15.875Z,383.52
2022-11-08T09:03:34.546Z,391.17
2022-11-08T09:06:03.039Z,397.52
2022-11-08T09:08:31.581Z,393.33
2022-11-08T09:11:01.280Z,416.83
2022-11-08T09:13:31.908Z,400.98
2022-11-08T09:16:01.331Z,393.45
2022-11-08T09:18:29.357Z,434.73
2022-11-08T09:20:59.053Z,423.40
2022-11-08T09:23:27.027Z,374.08
2022-11-08T09:25:58.546Z,386.42
2022-11-08T09:28:30.986Z,376.52
2022-11-08T09:31:01.802Z,375.48
2022-11-08T09:33:29.549Z,353.23
2022-11-08T09:36:00.227Z,383.20
2022-11-08T09:38:27.961Z,406.60
2022-11-08T09:41:10.176Z,384.58
2022-11-08T09:43:48.098Z,372.98
2022-11-08T09:46:22.815Z,397.30
2022-11-08T09:48:52.631Z,379.08
2022-11-08T09:51:24.698Z,391.60
2022-11-08T09:53:54.743Z,390.52
2022-11-08T09:56:25.737Z,346.73
2022-11-08T09:58:55.328Z,356.02
2022-11-08T10:01:27.217Z,347.42
2022-11-08T10:03:58.770Z,363.73
2022-11-08T10:06:54.049Z,365.70
2022-11-08T10:09:38.060Z,351.88
2022-11-08T10:12:16.050Z,347.08
2022-11-08T10:14:58.105Z,354.30
2022-11-08T10:17:51.759Z,341.27
2022-11-08T10:20:31.539Z,354.50
2022-11-08T10:23:14.896Z,365.48
2022-11-08T10:25:47.588Z,348.50
2022-11-08T10:28:17.931Z,352.08
2022-11-08T10:30:49.643Z,366.02
2022-11-08T10:33:24.425Z,364.17
2022-11-08T10:36:02.101Z,365.05
2022-11-08T10:38:40.630Z,363.08
2022-11-08T10:41:14.849Z,353.13
2022-11-08T10:43:45.937Z,371.60
2022-11-08T10:46:27.869Z,342.60
2022-11-08T10:48:58.672Z,356.20
2022-11-08T10:51:26.326Z,365.90
2022-11-08T10:53:55.335Z,367.85
2022-11-08T10:56:24.758Z,374.73
2022-11-08T10:58:52.436Z,374.50
2022-11-08T11:01:22.761Z,360.42
2022-11-08T11:03:51.751Z,394.70
2022-11-08T11:06:25.536Z,357.05
2022-11-08T11:08:58.467Z,364.98
2022-11-08T11:11:28.763Z,368.88
2022-11-08T11:14:07.718Z,385.05
2022-11-08T11:16:36.576Z,364.67
2022-11-08T11:19:06.857Z,368.55
2022-11-08T11:21:38.966Z,381.63
2022-11-08T11:24:13.364Z,384.08
2022-11-08T11:26:46.556Z,367.67
2022-11-08T11:29:21.349Z,370.77
2022-11-08T11:31:52.078Z,367.33
2022-11-08T11:34:33.095Z,369.60
2022-11-08T11:37:06.016Z,344.13
2022-11-08T11:39:41.219Z,361.17
2022-11-08T11:42:43.819Z,350.50
2022-11-08T11:45:12.570Z,334.45
2022-11-08T11:47:47.853Z,348.63
2022-11-08T11:50:34.906Z,332.33
2022-11-08T11:53:07.602Z,337.40
2022-11-08T11:55:56.460Z,324.45
2022-11-08T11:59:05.796Z,323.83
2022-11-08T12:01:50.382Z,295.25
2022-11-08T12:04:52.110Z,311.65
2022-11-08T12:07:25.197Z,325.80
2022-11-08T12:10:07.076Z,323.80
2022-11-08T12:12:50.426Z,325.77
2022-11-08T12:15:26.923Z,323.85
2022-11-08T12:18:25.692Z,323.95
2022-11-08T12:21:07.732Z,300.15
2022-11-08T12:24:01.266Z,331.58
2022-11-08T12:26:34.613Z,306.63
2022-11-08T12:29:21.941Z,310.95
2022-11-08T12:32:00.703Z,309.42
2022-11-08T12:34:35.687Z,314.70
2022-11-08T12:37:17.675Z,315.60
2022-11-08T12:39:48.240Z,303.92
2022-11-08T12:42:28.514Z,301.65
2022-11-08T12:45:25.537Z,296.10
2022-11-08T12:47:58.214Z,289.30
2022-11-08T12:50:33.222Z,305.33
2022-11-08T12:53:30.045Z,280.05
2022-11-08T12:55:59.472Z,294.75
2022-11-08T12:58:36.368Z,274.48
2022-11-08T13:01:08.561Z,275.00
2022-11-08T13:03:57.913Z,282.27
2022-11-08T13:06:35.154Z,289.27
2022-11-08T13:09:11.284Z,251.75
2022-11-08T13:11:44.438Z,238.13
2022-11-08T13:14:16.542Z,237.30
2022-11-08T13:16:47.015Z,234.68
2022-11-08T13:19:30.508Z,238.65
2022-11-08T13:21:58.444Z,230.90
2022-11-08T13:24:49.810Z,242.60
2022-11-08T13:27:26.250Z,230.25
2022-11-08T13:29:54.315Z,226.27
2022-11-08T13:32:33.765Z,244.73
2022-11-08T13:35:08.119Z,227.63
2022-11-08T13:37:52.190Z,226.25
2022-11-08T13:40:28.117Z,238.63
2022-11-08T13:43:15.577Z,211.38
2022-11-08T13:45:45.065Z,217.45
2022-11-08T13:48:43.207Z,212.70
2022-11-08T13:51:28.498Z,214.05
2022-11-08T13:53:58.982Z,221.27
2022-11-08T13:56:46.826Z,206.25
2022-11-08T13:59:49.858Z,205.07
2022-11-08T14:02:37.543Z,221.60
2022-11-08T14:05:41.150Z,222.38
2022-11-08T14:08:23.916Z,207.57
2022-11-08T14:11:28.915Z,203.55
2022-11-08T14:14:12.495Z,202.65
2022-11-08T14:16:49.899Z,208.88
2022-11-08T14:19:22.308Z,191.35
2022-11-08T14:21:53.901Z,198.27
2022-11-08T14:24:24.720Z,215.40
2022-11-08T14:26:53.005Z,220.32
2022-11-08T14:29:23.251Z,201.90
2022-11-08T14:32:03.119Z,203.20
2022-11-08T14:34:34.032Z,195.73
2022-11-08T14:37:04.418Z,191.32
2022-11-08T14:39:33.744Z,188.13
2022-11-08T14:42:04.432Z,199.73
2022-11-08T14:44:33.235Z,195.10
2022-11-08T14:47:00.878Z,184.98
2022-11-08T14:49:33.428Z,189.25
2022-11-08T14:52:17.185Z,187.00
2022-11-08T14:54:46.568Z,192.10
2022-11-08T14:57:31.379Z,202.60
2022-11-08T14:59:59.530Z,199.52
2022-11-08T15:02:27.392Z,203.20
2022-11-08T15:04:55.172Z,201.15
2022-11-08T15:07:26.198Z,206.77
2022-11-08T15:09:54.563Z,199.30
2022-11-08T15:12:24.746Z,202.27
2022-11-08T15:14:57.553Z,212.85
2022-11-08T15:17:36.696Z,248.32
2022-11-08T15:20:08.384Z,257.65
2022-11-08T15:22:37.942Z,252.68
2022-11-08T15:25:22.837Z,270.65
2022-11-08T15:27:52.360Z,298.52
2022-11-08T15:30:21.706Z,298.10
2022-11-08T15:32:50.216Z,318.70
2022-11-08T15:35:23.542Z,310.92
2022-11-08T15:37:53.085Z,301.48
2022-11-08T15:40:28.052Z,292.60
2022-11-08T15:42:55.847Z,314.83
2022-11-08T15:45:26.656Z,316.58
2022-11-08T15:48:00.345Z,296.00
2022-11-08T15:50:30.349Z,316.58
2022-11-08T15:53:01.708Z,307.27
2022-11-08T15:55:31.474Z,326.45
2022-11-08T15:58:00.134Z,326.52
2022-11-08T16:00:30.789Z,313.35
2022-11-08T16:02:59.483Z,333.73
2022-11-08T16:05:29.133Z,323.30
2022-11-08T16:07:56.807Z,324.63
2022-11-08T16:10:32.065Z,325.92
2022-11-08T16:13:01.488Z,327.63
2022-11-08T16:15:32.135Z,323.52
2022-11-08T16:18:00.160Z,321.40
2022-11-08T16:20:29.400Z,316.02
2022-11-08T16:22:58.037Z,325.55
2022-11-08T16:25:29.004Z,329.88
2022-11-08T16:27:58.858Z,339.02
2022-11-08T16:30:27.381Z,353.50
2022-11-08T16:32:55.017Z,357.88
2022-11-08T16:35:23.360Z,355.10
2022-11-08T16:37:52.011Z,346.58
2022-11-08T16:40:21.793Z,346.17
2022-11-08T16:42:52.238Z,342.80
2022-11-08T16:45:43.462Z,360.17
2022-11-08T16:48:17.212Z,349.30
2022-11-08T16:50:45.780Z,357.13
2022-11-08T16:53:16.324Z,374.55
2022-11-08T16:55:44.087Z,372.50
2022-11-08T16:58:13.356Z,359.60
2022-11-08T17:00:43.330Z,356.23
2022-11-08T17:03:14.443Z,370.42
2022-11-08T17:05:42.350Z,354.50
2022-11-08T17:08:10.113Z,353.05
2022-11-08T17:10:37.752Z,357.63
2022-11-08T17:13:05.372Z,359.63
2022-11-08T17:15:34.614Z,368.48
2022-11-08T17:18:03.122Z,368.10
2022-11-08T17:20:30.719Z,357.65
2022-11-08T17:22:58.580Z,346.13
2022-11-08T17:25:26.253Z,357.42
2022-11-08T17:27:54.345Z,354.20
2022-11-08T17:30:26.485Z,347.23
2022-11-08T17:32:55.916Z,367.23
2022-11-08T17:35:23.643Z,362.13
2022-11-08T17:37:53.267Z,361.70
2022-11-08T17:40:21.101Z,354.90
2022-11-08T17:42:49.506Z,351.38
2022-11-08T17:45:17.307Z,363.42
2022-11-08T17:47:44.906Z,365.08
2022-11-08T17:50:13.851Z,353.35
2022-11-08T17:52:42.208Z,358.55
2022-11-08T17:55:09.919Z,342.63
2022-11-08T17:57:37.707Z,366.50
2022-11-08T18:00:09.978Z,375.23
2022-11-08T18:02:40.208Z,354.05
2022-11-08T18:05:08.561Z,379.33
2022-11-08T18:07:38.381Z,364.20
2022-11-08T18:10:09.113Z,393.23
2022-11-08T18:12:36.948Z,350.98
2022-11-08T18:15:05.105Z,364.13
2022-11-08T18:17:32.970Z,381.02
2022-11-08T18:20:00.581Z,399.05
2022-11-08T18:22:28.227Z,385.73
2022-11-08T18:24:57.216Z,383.45
2022-11-08T18:27:24.887Z,421.00
2022-11-08T18:29:52.556Z,412.15
2022-11-08T18:32:20.203Z,396.02
2022-11-08T18:34:48.840Z,368.65
2022-11-08T18:37:17.290Z,370.90
2022-11-08T18:39:44.970Z,390.55
2022-11-08T18:42:13.962Z,383.20
2022-11-08T18:44:41.662Z,360.92
2022-11-08T18:47:09.267Z,350.85
2022-11-08T18:49:36.940Z,386.33
2022-11-08T18:52:04.911Z,362.27
2022-11-08T18:54:32.922Z,375.90
2022-11-08T18:57:00.552Z,369.77
2022-11-08T18:59:29.546Z,401.08
2022-11-08T19:01:57.680Z,397.63
2022-11-08T19:04:25.541Z,378.25
2022-11-08T19:06:54.748Z,401.45
2022-11-08T19:09:23.187Z,408.00
2022-11-08T19:11:50.818Z,405.63
2022-11-08T19:14:19.324Z,388.80
2022-11-08T19:16:48.979Z,425.63
2022-11-08T19:19:16.799Z,409.50
2022-11-08T19:21:44.526Z,426.90
2022-11-08T19:24:12.291Z,415.45
2022-11-08T19:26:39.991Z,411.35
2022-11-08T19:29:10.469Z,420.00
2022-11-08T19:31:38.975Z,377.70
2022-11-08T19:34:07.985Z,370.13
2022-11-08T19:36:40.302Z,373.50
2022-11-08T19:39:08.077Z,354.77
2022-11-08T19:41:35.759Z,378.52
2022-11-08T19:44:04.940Z,369.20
2022-11-08T19:46:33.891Z,344.17
2022-11-08T19:49:03.390Z,358.25
2022-11-08T19:51:34.476Z,381.50
2022-11-08T19:54:05.751Z,362.40
2022-11-08T19:57:02.551Z,360.60
2022-11-08T19:59:21.551Z,343.63
2022-11-08T20:01:49.265Z,339.60
2022-11-08T20:04:18.344Z,364.60
2022-11-08T20:06:47.616Z,373.20
2022-11-08T20:09:15.836Z,386.92
2022-11-08T20:11:43.720Z,360.17
2022-11-08T20:14:13.965Z,370.63
2022-11-08T20:16:45.732Z,381.30
2022-11-08T20:19:17.783Z,376.83
2022-11-08T20:21:46.956Z,389.20
2022-11-08T20:24:15.951Z,380.02
2022-11-08T20:26:45.013Z,394.15
2022-11-08T20:29:14.408Z,386.75
2022-11-08T20:31:42.787Z,372.30
2022-11-08T20:34:12.867Z,360.23
2022-11-08T20:36:41.585Z,366.30
2022-11-08T20:39:11.322Z,363.17
2022-11-08T20:41:40.946Z,341.67
2022-11-08T20:44:09.967Z,352.33
2022-11-08T20:46:38.369Z,336.92
2022-11-08T20:49:06.418Z,346.27
2022-11-08T20:51:34.858Z,338.17
2022-11-08T20:54:02.572Z,335.38
2022-11-08T20:56:31.719Z,331.88
2022-11-08T20:58:59.499Z,331.70
2022-11-08T21:01:29.604Z,326.23
2022-11-08T21:04:15.998Z,302.13
2022-11-08T21:10:40.960Z,304.48
2022-11-08T21:13:21.201Z,306.35
2022-11-08T21:16:28.869Z,307.98
2022-11-08T21:19:18.176Z,317.55
2022-11-08T21:22:18.096Z,299.00
2022-11-08T21:25:06.612Z,311.02
2022-11-08T21:27:54.570Z,325.77
2022-11-08T21:30:46.534Z,320.75
2022-11-08T21:33:34.689Z,326.70
2022-11-08T21:36:26.484Z,309.17
2022-11-08T21:39:14.382Z,307.25
2022-11-08T21:42:02.257Z,320.90
2022-11-08T21:44:50.171Z,328.13
2022-11-08T21:47:39.534Z,323.60
2022-11-08T21:50:27.602Z,332.73
2022-11-08T21:53:15.592Z,334.17
2022-11-08T21:56:03.586Z,343.08
2022-11-08T21:58:51.535Z,352.77
2022-11-08T22:01:39.491Z,333.85
2022-11-08T22:04:28.761Z,347.77
2022-11-08T22:07:16.690Z,355.55
2022-11-08T22:10:04.843Z,360.38
2022-11-08T22:12:52.738Z,369.73
2022-11-08T22:15:40.685Z,366.08
2022-11-08T22:18:50.806Z,380.58
2022-11-08T22:21:44.125Z,395.55
2022-11-08T22:24:32.115Z,367.95
2022-11-08T22:27:20.088Z,375.65
2022-11-08T22:30:14.012Z,382.05
2022-11-08T22:33:04.602Z,401.65
2022-11-08T22:35:52.527Z,420.13
2022-11-08T22:38:41.787Z,433.20
2022-11-08T22:41:29.745Z,415.05
2022-11-08T22:44:18.513Z,433.25
2022-11-08T22:47:06.465Z,436.95
2022-11-08T22:49:54.377Z,435.23
2022-11-08T22:52:42.302Z,432.13
2022-11-08T22:55:31.598Z,435.80
2022-11-08T22:58:19.588Z,418.83
2022-11-08T23:01:08.081Z,428.08
2022-11-08T23:03:56.075Z,438.13
2022-11-08T23:06:44.575Z,437.77
2022-11-08T23:09:32.556Z,418.65
2022-11-08T23:12:39.534Z,432.33
2022-11-08T23:15:50.581Z,418.63
2022-11-08T23:18:38.497Z,424.75
2022-11-08T23:21:43.941Z,414.55
2022-11-08T23:24:32.549Z,431.92
2022-11-08T23:27:39.363Z,420.83
2022-11-08T23:30:44.993Z,426.63
2022-11-08T23:33:32.908Z,413.50
2022-11-08T23:36:21.175Z,422.45
2022-11-08T23:39:09.128Z,427.45
2022-11-08T23:42:29.323Z,411.33
2022-11-08T23:45:19.029Z,436.35
2022-11-08T23:48:06.926Z,431.77
2022-11-08T23:50:55.774Z,451.60
2022-11-08T23:53:43.983Z,474.23
2022-11-08T23:56:31.892Z,463.25
2022-11-08T23:59:19.849Z,458.23
